sensor_id;sensor_type;location;lat;lon;timestamp;P1;durP1;ratioP1;P2;durP2;ratioP2
2966;SDS011;1493;51.496;7.210;2023-09-08T00:02:22;7.60;;;5.83;;
2966;SDS011;1493;51.496;7.210;2023-09-08T00:04:52;8.07;;;6.40;;
2966;SDS011;1493;51.496;7.210;2023-09-08T00:07:19;6.37;;;5.77;;
2966;SDS011;1493;51.496;7.210;2023-09-08T00:09:45;10.63;;;6.40;;
2966;SDS011;1493;51.496;7.210;2023-09-08T00:12:16;5.83;;;5.10;;
2966;SDS011;1493;51.496;7.210;2023-09-08T00:14:43;8.47;;;5.33;;
2966;SDS011;1493;51.496;7.210;2023-09-08T00:17:10;7.33;;;6.47;;
2966;SDS011;1493;51.496;7.210;2023-09-08T00:19:39;6.57;;;5.33;;
2966;SDS011;1493;51.496;7.210;2023-09-08T00:22:06;9.23;;;5.90;;
2966;SDS011;1493;51.496;7.210;2023-09-08T00:24:33;7.40;;;6.27;;
2966;SDS011;1493;51.496;7.210;2023-09-08T00:27:00;6.60;;;5.90;;
2966;SDS011;1493;51.496;7.210;2023-09-08T00:29:28;10.30;;;6.97;;
2966;SDS011;1493;51.496;7.210;2023-09-08T00:31:55;7.73;;;6.40;;
2966;SDS011;1493;51.496;7.210;2023-09-08T00:34:22;7.47;;;6.53;;
2966;SDS011;1493;51.496;7.210;2023-09-08T00:36:49;7.33;;;6.53;;
2966;SDS011;1493;51.496;7.210;2023-09-08T00:39:16;10.00;;;6.77;;
2966;SDS011;1493;51.496;7.210;2023-09-08T00:41:43;6.57;;;5.87;;
2966;SDS011;1493;51.496;7.210;2023-09-08T00:44:10;7.27;;;6.00;;
2966;SDS011;1493;51.496;7.210;2023-09-08T00:46:38;8.80;;;6.57;;
2966;SDS011;1493;51.496;7.210;2023-09-08T00:49:05;9.23;;;7.23;;
2966;SDS011;1493;51.496;7.210;2023-09-08T00:51:34;9.20;;;7.07;;
2966;SDS011;1493;51.496;7.210;2023-09-08T00:54:02;7.60;;;5.87;;
2966;SDS011;1493;51.496;7.210;2023-09-08T00:56:30;7.37;;;6.47;;
2966;SDS011;1493;51.496;7.210;2023-09-08T00:58:57;7.63;;;6.17;;
2966;SDS011;1493;51.496;7.210;2023-09-08T01:01:25;8.17;;;6.70;;
2966;SDS011;1493;51.496;7.210;2023-09-08T01:03:53;6.73;;;5.73;;
2966;SDS011;1493;51.496;7.210;2023-09-08T01:06:21;8.97;;;6.20;;
2966;SDS011;1493;51.496;7.210;2023-09-08T01:08:50;7.03;;;6.30;;
2966;SDS011;1493;51.496;7.210;2023-09-08T01:11:18;8.77;;;6.83;;
2966;SDS011;1493;51.496;7.210;2023-09-08T01:13:46;9.27;;;6.60;;
2966;SDS011;1493;51.496;7.210;2023-09-08T01:16:12;8.30;;;6.30;;
2966;SDS011;1493;51.496;7.210;2023-09-08T01:18:39;9.37;;;6.87;;
2966;SDS011;1493;51.496;7.210;2023-09-08T01:24:17;9.50;;;6.63;;
2966;SDS011;1493;51.496;7.210;2023-09-08T01:26:57;9.17;;;6.57;;
2966;SDS011;1493;51.496;7.210;2023-09-08T01:29:25;7.13;;;6.10;;
2966;SDS011;1493;51.496;7.210;2023-09-08T01:31:54;8.20;;;6.60;;
2966;SDS011;1493;51.496;7.210;2023-09-08T01:34:22;7.17;;;5.17;;
2966;SDS011;1493;51.496;7.210;2023-09-08T01:36:49;8.37;;;6.17;;
2966;SDS011;1493;51.496;7.210;2023-09-08T01:39:16;7.03;;;6.33;;
2966;SDS011;1493;51.496;7.210;2023-09-08T01:41:42;7.63;;;6.87;;
2966;SDS011;1493;51.496;7.210;2023-09-08T01:44:13;8.00;;;6.10;;
2966;SDS011;1493;51.496;7.210;2023-09-08T01:46:58;7.10;;;6.17;;
2966;SDS011;1493;51.496;7.210;2023-09-08T01:49:25;9.20;;;7.00;;
2966;SDS011;1493;51.496;7.210;2023-09-08T01:51:55;7.27;;;6.20;;
2966;SDS011;1493;51.496;7.210;2023-09-08T01:54:22;7.17;;;6.30;;
2966;SDS011;1493;51.496;7.210;2023-09-08T01:56:49;7.37;;;6.57;;
2966;SDS011;1493;51.496;7.210;2023-09-08T01:59:17;8.53;;;6.97;;
2966;SDS011;1493;51.496;7.210;2023-09-08T02:01:44;8.83;;;6.83;;
2966;SDS011;1493;51.496;7.210;2023-09-08T02:04:11;7.30;;;6.60;;
2966;SDS011;1493;51.496;7.210;2023-09-08T02:06:38;8.93;;;8.13;;
2966;SDS011;1493;51.496;7.210;2023-09-08T02:09:04;8.07;;;7.23;;
2966;SDS011;1493;51.496;7.210;2023-09-08T02:11:31;8.07;;;7.20;;
2966;SDS011;1493;51.496;7.210;2023-09-08T02:13:58;7.87;;;7.17;;
2966;SDS011;1493;51.496;7.210;2023-09-08T02:16:26;8.40;;;6.80;;
2966;SDS011;1493;51.496;7.210;2023-09-08T02:18:53;9.93;;;8.03;;
2966;SDS011;1493;51.496;7.210;2023-09-08T02:21:20;9.00;;;8.10;;
2966;SDS011;1493;51.496;7.210;2023-09-08T02:23:47;8.10;;;7.20;;
2966;SDS011;1493;51.496;7.210;2023-09-08T02:26:14;8.47;;;7.57;;
2966;SDS011;1493;51.496;7.210;2023-09-08T02:28:41;9.17;;;6.93;;
2966;SDS011;1493;51.496;7.210;2023-09-08T02:31:08;9.87;;;8.33;;
2966;SDS011;1493;51.496;7.210;2023-09-08T02:33:36;8.47;;;7.63;;
2966;SDS011;1493;51.496;7.210;2023-09-08T02:36:03;7.87;;;7.17;;
2966;SDS011;1493;51.496;7.210;2023-09-08T02:38:31;8.50;;;7.47;;
2966;SDS011;1493;51.496;7.210;2023-09-08T02:40:58;11.23;;;7.87;;
2966;SDS011;1493;51.496;7.210;2023-09-08T02:43:24;9.57;;;7.57;;
2966;SDS011;1493;51.496;7.210;2023-09-08T02:45:52;7.93;;;7.13;;
2966;SDS011;1493;51.496;7.210;2023-09-08T02:48:19;9.63;;;7.40;;
2966;SDS011;1493;51.496;7.210;2023-09-08T02:50:48;7.80;;;7.00;;
2966;SDS011;1493;51.496;7.210;2023-09-08T02:53:15;7.37;;;6.67;;
2966;SDS011;1493;51.496;7.210;2023-09-08T02:55:42;8.63;;;7.20;;
2966;SDS011;1493;51.496;7.210;2023-09-08T02:58:11;7.77;;;6.97;;
2966;SDS011;1493;51.496;7.210;2023-09-08T03:00:37;8.10;;;6.40;;
2966;SDS011;1493;51.496;7.210;2023-09-08T03:03:04;7.83;;;6.97;;
2966;SDS011;1493;51.496;7.210;2023-09-08T03:05:31;9.07;;;7.67;;
2966;SDS011;1493;51.496;7.210;2023-09-08T03:07:59;8.20;;;7.37;;
2966;SDS011;1493;51.496;7.210;2023-09-08T03:10:26;9.97;;;7.77;;
2966;SDS011;1493;51.496;7.210;2023-09-08T03:12:53;8.33;;;7.03;;
2966;SDS011;1493;51.496;7.210;2023-09-08T03:15:20;8.73;;;7.80;;
2966;SDS011;1493;51.496;7.210;2023-09-08T03:17:47;9.30;;;7.40;;
2966;SDS011;1493;51.496;7.210;2023-09-08T03:20:14;8.53;;;7.73;;
2966;SDS011;1493;51.496;7.210;2023-09-08T03:22:40;9.20;;;7.87;;
2966;SDS011;1493;51.496;7.210;2023-09-08T03:25:09;9.00;;;7.80;;
2966;SDS011;1493;51.496;7.210;2023-09-08T03:27:36;7.67;;;6.50;;
2966;SDS011;1493;51.496;7.210;2023-09-08T03:30:03;9.00;;;7.97;;
2966;SDS011;1493;51.496;7.210;2023-09-08T03:32:30;7.10;;;6.40;;
2966;SDS011;1493;51.496;7.210;2023-09-08T03:34:57;8.77;;;7.40;;
2966;SDS011;1493;51.496;7.210;2023-09-08T03:37:24;9.27;;;8.23;;
2966;SDS011;1493;51.496;7.210;2023-09-08T03:39:57;8.43;;;7.37;;
2966;SDS011;1493;51.496;7.210;2023-09-08T03:42:25;8.20;;;7.10;;
2966;SDS011;1493;51.496;7.210;2023-09-08T03:44:52;7.73;;;6.93;;
2966;SDS011;1493;51.496;7.210;2023-09-08T03:47:18;11.37;;;8.70;;
2966;SDS011;1493;51.496;7.210;2023-09-08T03:49:45;8.63;;;7.53;;
2966;SDS011;1493;51.496;7.210;2023-09-08T03:52:12;9.03;;;7.40;;
2966;SDS011;1493;51.496;7.210;2023-09-08T03:54:39;7.23;;;6.53;;
2966;SDS011;1493;51.496;7.210;2023-09-08T03:57:06;7.97;;;7.17;;
2966;SDS011;1493;51.496;7.210;2023-09-08T03:59:34;8.30;;;7.40;;
2966;SDS011;1493;51.496;7.210;2023-09-08T04:02:01;7.67;;;6.93;;
2966;SDS011;1493;51.496;7.210;2023-09-08T04:04:28;7.70;;;6.90;;
2966;SDS011;1493;51.496;7.210;2023-09-08T04:06:55;8.20;;;7.40;;
2966;SDS011;1493;51.496;7.210;2023-09-08T04:09:24;7.33;;;6.63;;
2966;SDS011;1493;51.496;7.210;2023-09-08T04:11:55;9.50;;;7.53;;
2966;SDS011;1493;51.496;7.210;2023-09-08T04:14:22;10.23;;;7.50;;
2966;SDS011;1493;51.496;7.210;2023-09-08T04:16:53;6.57;;;5.80;;
2966;SDS011;1493;51.496;7.210;2023-09-08T04:19:20;9.27;;;7.83;;
2966;SDS011;1493;51.496;7.210;2023-09-08T04:21:49;6.90;;;6.30;;
2966;SDS011;1493;51.496;7.210;2023-09-08T04:24:16;8.57;;;7.67;;
2966;SDS011;1493;51.496;7.210;2023-09-08T04:26:43;7.03;;;6.33;;
2966;SDS011;1493;51.496;7.210;2023-09-08T04:29:09;9.33;;;7.17;;
2966;SDS011;1493;51.496;7.210;2023-09-08T04:31:36;8.50;;;7.53;;
2966;SDS011;1493;51.496;7.210;2023-09-08T04:34:04;9.07;;;7.20;;
2966;SDS011;1493;51.496;7.210;2023-09-08T04:36:31;8.23;;;6.87;;
2966;SDS011;1493;51.496;7.210;2023-09-08T04:38:58;9.60;;;7.20;;
2966;SDS011;1493;51.496;7.210;2023-09-08T04:41:27;8.17;;;6.87;;
2966;SDS011;1493;51.496;7.210;2023-09-08T04:43:53;9.70;;;7.40;;
2966;SDS011;1493;51.496;7.210;2023-09-08T04:46:22;8.07;;;7.10;;
2966;SDS011;1493;51.496;7.210;2023-09-08T04:48:49;7.90;;;7.00;;
2966;SDS011;1493;51.496;7.210;2023-09-08T04:51:17;7.53;;;6.50;;
2966;SDS011;1493;51.496;7.210;2023-09-08T04:53:44;8.20;;;7.27;;
2966;SDS011;1493;51.496;7.210;2023-09-08T04:56:11;7.87;;;6.40;;
2966;SDS011;1493;51.496;7.210;2023-09-08T04:58:39;8.23;;;7.43;;
2966;SDS011;1493;51.496;7.210;2023-09-08T05:01:06;8.33;;;7.43;;
2966;SDS011;1493;51.496;7.210;2023-09-08T05:03:32;7.57;;;6.87;;
2966;SDS011;1493;51.496;7.210;2023-09-08T05:05:59;13.13;;;6.63;;
2966;SDS011;1493;51.496;7.210;2023-09-08T05:08:27;8.20;;;7.03;;
2966;SDS011;1493;51.496;7.210;2023-09-08T05:10:54;8.53;;;7.30;;
2966;SDS011;1493;51.496;7.210;2023-09-08T05:13:21;8.60;;;7.20;;
2966;SDS011;1493;51.496;7.210;2023-09-08T05:15:51;8.10;;;7.30;;
2966;SDS011;1493;51.496;7.210;2023-09-08T05:18:25;8.73;;;6.50;;
2966;SDS011;1493;51.496;7.210;2023-09-08T05:20:52;9.10;;;6.40;;
2966;SDS011;1493;51.496;7.210;2023-09-08T05:23:19;9.87;;;7.70;;
2966;SDS011;1493;51.496;7.210;2023-09-08T05:25:47;7.50;;;6.63;;
2966;SDS011;1493;51.496;7.210;2023-09-08T05:28:14;7.53;;;6.80;;
2966;SDS011;1493;51.496;7.210;2023-09-08T05:30:40;8.33;;;7.17;;
2966;SDS011;1493;51.496;7.210;2023-09-08T05:33:07;7.53;;;6.73;;
2966;SDS011;1493;51.496;7.210;2023-09-08T05:35:34;8.47;;;6.50;;
2966;SDS011;1493;51.496;7.210;2023-09-08T05:38:01;8.60;;;7.40;;
2966;SDS011;1493;51.496;7.210;2023-09-08T05:40:28;8.30;;;7.40;;
2966;SDS011;1493;51.496;7.210;2023-09-08T05:42:56;9.23;;;8.33;;
2966;SDS011;1493;51.496;7.210;2023-09-08T05:45:23;8.90;;;7.97;;
2966;SDS011;1493;51.496;7.210;2023-09-08T05:47:50;10.37;;;7.60;;
2966;SDS011;1493;51.496;7.210;2023-09-08T05:50:17;9.63;;;7.20;;
2966;SDS011;1493;51.496;7.210;2023-09-08T05:52:44;7.67;;;6.60;;
2966;SDS011;1493;51.496;7.210;2023-09-08T05:55:11;8.03;;;6.60;;
2966;SDS011;1493;51.496;7.210;2023-09-08T05:57:38;10.37;;;7.07;;
2966;SDS011;1493;51.496;7.210;2023-09-08T06:00:07;10.47;;;7.60;;
2966;SDS011;1493;51.496;7.210;2023-09-08T06:02:34;7.80;;;6.13;;
2966;SDS011;1493;51.496;7.210;2023-09-08T06:05:02;7.67;;;6.90;;
2966;SDS011;1493;51.496;7.210;2023-09-08T06:07:29;8.70;;;6.30;;
2966;SDS011;1493;51.496;7.210;2023-09-08T06:09:56;7.50;;;6.30;;
2966;SDS011;1493;51.496;7.210;2023-09-08T06:12:23;9.00;;;6.60;;
2966;SDS011;1493;51.496;7.210;2023-09-08T06:14:49;7.47;;;6.40;;
2966;SDS011;1493;51.496;7.210;2023-09-08T06:17:18;8.20;;;6.57;;
2966;SDS011;1493;51.496;7.210;2023-09-08T06:19:44;8.23;;;5.40;;
2966;SDS011;1493;51.496;7.210;2023-09-08T06:22:11;7.50;;;6.30;;
2966;SDS011;1493;51.496;7.210;2023-09-08T06:24:40;6.73;;;6.00;;
2966;SDS011;1493;51.496;7.210;2023-09-08T06:27:07;9.07;;;6.30;;
2966;SDS011;1493;51.496;7.210;2023-09-08T06:29:34;11.13;;;6.83;;
2966;SDS011;1493;51.496;7.210;2023-09-08T06:32:01;8.33;;;6.83;;
2966;SDS011;1493;51.496;7.210;2023-09-08T06:34:29;8.73;;;5.80;;
2966;SDS011;1493;51.496;7.210;2023-09-08T06:36:56;7.30;;;6.23;;
2966;SDS011;1493;51.496;7.210;2023-09-08T06:39:24;9.03;;;6.20;;
2966;SDS011;1493;51.496;7.210;2023-09-08T06:41:51;7.50;;;5.87;;
2966;SDS011;1493;51.496;7.210;2023-09-08T06:44:19;7.20;;;6.10;;
2966;SDS011;1493;51.496;7.210;2023-09-08T06:46:46;8.20;;;5.93;;
2966;SDS011;1493;51.496;7.210;2023-09-08T06:49:13;6.47;;;5.70;;
2966;SDS011;1493;51.496;7.210;2023-09-08T06:51:41;9.60;;;5.80;;
2966;SDS011;1493;51.496;7.210;2023-09-08T06:54:08;5.73;;;5.07;;
2966;SDS011;1493;51.496;7.210;2023-09-08T06:56:35;12.30;;;6.60;;
2966;SDS011;1493;51.496;7.210;2023-09-08T06:59:02;8.60;;;5.93;;
2966;SDS011;1493;51.496;7.210;2023-09-08T07:01:29;7.07;;;6.10;;
2966;SDS011;1493;51.496;7.210;2023-09-08T07:03:55;7.50;;;6.80;;
2966;SDS011;1493;51.496;7.210;2023-09-08T07:06:22;7.27;;;5.60;;
2966;SDS011;1493;51.496;7.210;2023-09-08T07:08:50;7.07;;;6.37;;
2966;SDS011;1493;51.496;7.210;2023-09-08T07:11:17;9.70;;;6.23;;
2966;SDS011;1493;51.496;7.210;2023-09-08T07:13:44;11.97;;;6.80;;
2966;SDS011;1493;51.496;7.210;2023-09-08T07:16:11;6.33;;;5.13;;
2966;SDS011;1493;51.496;7.210;2023-09-08T07:18:38;10.90;;;6.40;;
2966;SDS011;1493;51.496;7.210;2023-09-08T07:21:04;9.00;;;6.27;;
2966;SDS011;1493;51.496;7.210;2023-09-08T07:23:31;6.80;;;6.17;;
2966;SDS011;1493;51.496;7.210;2023-09-08T07:26:01;7.30;;;5.80;;
2966;SDS011;1493;51.496;7.210;2023-09-08T07:28:28;10.13;;;5.87;;
2966;SDS011;1493;51.496;7.210;2023-09-08T07:31:00;9.43;;;6.13;;
2966;SDS011;1493;51.496;7.210;2023-09-08T07:33:27;8.60;;;6.30;;
2966;SDS011;1493;51.496;7.210;2023-09-08T07:35:54;5.83;;;5.10;;
2966;SDS011;1493;51.496;7.210;2023-09-08T07:38:20;8.03;;;6.10;;
2966;SDS011;1493;51.496;7.210;2023-09-08T07:40:47;6.57;;;5.97;;
2966;SDS011;1493;51.496;7.210;2023-09-08T07:43:15;7.37;;;5.97;;
2966;SDS011;1493;51.496;7.210;2023-09-08T07:45:42;9.90;;;6.50;;
2966;SDS011;1493;51.496;7.210;2023-09-08T07:48:09;7.63;;;6.00;;
2966;SDS011;1493;51.496;7.210;2023-09-08T07:50:36;7.73;;;6.13;;
2966;SDS011;1493;51.496;7.210;2023-09-08T07:53:03;7.77;;;6.37;;
2966;SDS011;1493;51.496;7.210;2023-09-08T07:55:30;11.87;;;6.63;;
2966;SDS011;1493;51.496;7.210;2023-09-08T07:57:57;7.20;;;6.50;;
2966;SDS011;1493;51.496;7.210;2023-09-08T08:00:29;8.40;;;6.73;;
2966;SDS011;1493;51.496;7.210;2023-09-08T08:02:56;7.60;;;5.93;;
2966;SDS011;1493;51.496;7.210;2023-09-08T08:05:24;6.30;;;5.63;;
2966;SDS011;1493;51.496;7.210;2023-09-08T08:07:52;6.10;;;5.37;;
2966;SDS011;1493;51.496;7.210;2023-09-08T08:10:19;8.10;;;5.47;;
2966;SDS011;1493;51.496;7.210;2023-09-08T08:12:46;6.23;;;5.50;;
2966;SDS011;1493;51.496;7.210;2023-09-08T08:15:14;8.57;;;5.80;;
2966;SDS011;1493;51.496;7.210;2023-09-08T08:17:42;8.77;;;6.33;;
2966;SDS011;1493;51.496;7.210;2023-09-08T08:20:10;8.03;;;5.60;;
2966;SDS011;1493;51.496;7.210;2023-09-08T08:22:42;10.23;;;5.30;;
2966;SDS011;1493;51.496;7.210;2023-09-08T08:25:10;5.90;;;5.13;;
2966;SDS011;1493;51.496;7.210;2023-09-08T08:27:37;10.43;;;5.97;;
2966;SDS011;1493;51.496;7.210;2023-09-08T08:30:04;7.63;;;6.07;;
2966;SDS011;1493;51.496;7.210;2023-09-08T08:32:32;7.63;;;5.40;;
2966;SDS011;1493;51.496;7.210;2023-09-08T08:35:01;7.20;;;5.10;;
2966;SDS011;1493;51.496;7.210;2023-09-08T08:37:31;8.37;;;5.80;;
2966;SDS011;1493;51.496;7.210;2023-09-08T08:39:59;10.47;;;5.90;;
2966;SDS011;1493;51.496;7.210;2023-09-08T08:42:30;6.50;;;5.40;;
2966;SDS011;1493;51.496;7.210;2023-09-08T08:44:58;6.20;;;5.27;;
2966;SDS011;1493;51.496;7.210;2023-09-08T08:47:25;9.33;;;5.43;;
2966;SDS011;1493;51.496;7.210;2023-09-08T08:49:53;7.10;;;6.00;;
2966;SDS011;1493;51.496;7.210;2023-09-08T08:52:24;5.60;;;5.03;;
2966;SDS011;1493;51.496;7.210;2023-09-08T08:54:52;10.90;;;5.57;;
2966;SDS011;1493;51.496;7.210;2023-09-08T08:57:19;8.60;;;5.27;;
2966;SDS011;1493;51.496;7.210;2023-09-08T08:59:47;7.10;;;5.73;;
2966;SDS011;1493;51.496;7.210;2023-09-08T09:02:16;7.80;;;5.73;;
2966;SDS011;1493;51.496;7.210;2023-09-08T09:04:45;9.00;;;5.03;;
2966;SDS011;1493;51.496;7.210;2023-09-08T09:07:12;9.90;;;5.90;;
2966;SDS011;1493;51.496;7.210;2023-09-08T09:09:41;14.00;;;4.50;;
2966;SDS011;1493;51.496;7.210;2023-09-08T09:12:08;8.60;;;5.03;;
2966;SDS011;1493;51.496;7.210;2023-09-08T09:14:35;6.03;;;5.23;;
2966;SDS011;1493;51.496;7.210;2023-09-08T09:17:02;6.50;;;5.60;;
2966;SDS011;1493;51.496;7.210;2023-09-08T09:19:30;5.63;;;4.43;;
2966;SDS011;1493;51.496;7.210;2023-09-08T09:21:58;7.63;;;5.27;;
2966;SDS011;1493;51.496;7.210;2023-09-08T09:24:29;5.37;;;4.43;;
2966;SDS011;1493;51.496;7.210;2023-09-08T09:26:59;5.83;;;4.30;;
2966;SDS011;1493;51.496;7.210;2023-09-08T09:29:26;8.70;;;4.83;;
2966;SDS011;1493;51.496;7.210;2023-09-08T09:31:55;5.47;;;4.37;;
2966;SDS011;1493;51.496;7.210;2023-09-08T09:34:23;8.27;;;4.77;;
2966;SDS011;1493;51.496;7.210;2023-09-08T09:36:50;5.20;;;4.47;;
2966;SDS011;1493;51.496;7.210;2023-09-08T09:39:18;7.23;;;4.53;;
2966;SDS011;1493;51.496;7.210;2023-09-08T09:41:46;5.20;;;4.17;;
2966;SDS011;1493;51.496;7.210;2023-09-08T09:44:14;7.00;;;4.23;;
2966;SDS011;1493;51.496;7.210;2023-09-08T09:46:44;6.30;;;3.93;;
2966;SDS011;1493;51.496;7.210;2023-09-08T09:49:12;5.30;;;3.50;;
2966;SDS011;1493;51.496;7.210;2023-09-08T09:51:40;5.80;;;4.10;;
2966;SDS011;1493;51.496;7.210;2023-09-08T09:54:08;4.33;;;3.43;;
2966;SDS011;1493;51.496;7.210;2023-09-08T09:56:36;7.60;;;3.90;;
2966;SDS011;1493;51.496;7.210;2023-09-08T09:59:04;8.10;;;3.80;;
2966;SDS011;1493;51.496;7.210;2023-09-08T10:01:34;4.10;;;3.30;;
2966;SDS011;1493;51.496;7.210;2023-09-08T10:04:04;4.83;;;3.77;;
2966;SDS011;1493;51.496;7.210;2023-09-08T10:06:31;8.90;;;4.30;;
2966;SDS011;1493;51.496;7.210;2023-09-08T10:08:59;3.80;;;3.20;;
2966;SDS011;1493;51.496;7.210;2023-09-08T10:11:29;3.90;;;3.50;;
2966;SDS011;1493;51.496;7.210;2023-09-08T10:14:01;4.93;;;3.83;;
2966;SDS011;1493;51.496;7.210;2023-09-08T10:16:28;4.77;;;3.57;;
2966;SDS011;1493;51.496;7.210;2023-09-08T10:19:01;4.83;;;3.73;;
2966;SDS011;1493;51.496;7.210;2023-09-08T10:21:33;3.93;;;3.53;;
2966;SDS011;1493;51.496;7.210;2023-09-08T10:24:08;5.63;;;4.03;;
2966;SDS011;1493;51.496;7.210;2023-09-08T10:26:43;5.20;;;3.67;;
2966;SDS011;1493;51.496;7.210;2023-09-08T10:29:13;5.33;;;3.80;;
2966;SDS011;1493;51.496;7.210;2023-09-08T10:31:40;4.83;;;4.10;;
2966;SDS011;1493;51.496;7.210;2023-09-08T10:34:09;9.43;;;3.60;;
2966;SDS011;1493;51.496;7.210;2023-09-08T10:36:36;4.63;;;3.70;;
2966;SDS011;1493;51.496;7.210;2023-09-08T10:47:54;4.70;;;3.60;;
2966;SDS011;1493;51.496;7.210;2023-09-08T10:50:29;4.03;;;3.63;;
2966;SDS011;1493;51.496;7.210;2023-09-08T10:53:04;5.20;;;3.30;;
2966;SDS011;1493;51.496;7.210;2023-09-08T10:55:39;5.20;;;3.77;;
2966;SDS011;1493;51.496;7.210;2023-09-08T10:58:09;5.93;;;4.17;;
2966;SDS011;1493;51.496;7.210;2023-09-08T11:00:43;5.53;;;3.57;;
2966;SDS011;1493;51.496;7.210;2023-09-08T11:03:11;5.43;;;3.80;;
2966;SDS011;1493;51.496;7.210;2023-09-08T11:05:40;4.47;;;3.70;;
2966;SDS011;1493;51.496;7.210;2023-09-08T11:08:07;6.30;;;3.60;;
2966;SDS011;1493;51.496;7.210;2023-09-08T11:10:34;5.97;;;3.60;;
2966;SDS011;1493;51.496;7.210;2023-09-08T11:13:03;3.70;;;3.30;;
2966;SDS011;1493;51.496;7.210;2023-09-08T11:15:31;4.07;;;3.67;;
2966;SDS011;1493;51.496;7.210;2023-09-08T11:18:02;4.60;;;3.83;;
2966;SDS011;1493;51.496;7.210;2023-09-08T11:20:31;4.13;;;3.50;;
2966;SDS011;1493;51.496;7.210;2023-09-08T11:23:03;5.30;;;4.00;;
2966;SDS011;1493;51.496;7.210;2023-09-08T11:25:31;4.90;;;3.97;;
2966;SDS011;1493;51.496;7.210;2023-09-08T11:27:59;4.70;;;3.47;;
2966;SDS011;1493;51.496;7.210;2023-09-08T11:30:26;3.93;;;3.50;;
2966;SDS011;1493;51.496;7.210;2023-09-08T11:32:53;6.40;;;4.27;;
2966;SDS011;1493;51.496;7.210;2023-09-08T11:35:23;5.10;;;4.30;;
2966;SDS011;1493;51.496;7.210;2023-09-08T11:37:58;4.80;;;4.27;;
2966;SDS011;1493;51.496;7.210;2023-09-08T11:40:29;5.90;;;3.73;;
2966;SDS011;1493;51.496;7.210;2023-09-08T11:42:57;4.17;;;3.50;;
2966;SDS011;1493;51.496;7.210;2023-09-08T11:45:25;4.03;;;3.63;;
2966;SDS011;1493;51.496;7.210;2023-09-08T11:47:53;4.80;;;4.07;;
2966;SDS011;1493;51.496;7.210;2023-09-08T11:50:21;4.23;;;3.70;;
2966;SDS011;1493;51.496;7.210;2023-09-08T11:52:49;6.97;;;3.97;;
2966;SDS011;1493;51.496;7.210;2023-09-08T11:55:18;5.53;;;4.10;;
2966;SDS011;1493;51.496;7.210;2023-09-08T11:57:50;5.93;;;4.30;;
2966;SDS011;1493;51.496;7.210;2023-09-08T12:00:22;4.40;;;3.70;;
2966;SDS011;1493;51.496;7.210;2023-09-08T12:02:50;4.33;;;3.50;;
2966;SDS011;1493;51.496;7.210;2023-09-08T12:05:21;4.47;;;3.07;;
2966;SDS011;1493;51.496;7.210;2023-09-08T12:07:50;4.33;;;3.67;;
2966;SDS011;1493;51.496;7.210;2023-09-08T12:10:17;4.60;;;4.07;;
2966;SDS011;1493;51.496;7.210;2023-09-08T12:12:45;5.00;;;4.10;;
2966;SDS011;1493;51.496;7.210;2023-09-08T12:18:00;5.17;;;3.40;;
2966;SDS011;1493;51.496;7.210;2023-09-08T12:20:28;5.87;;;4.07;;
2966;SDS011;1493;51.496;7.210;2023-09-08T12:22:57;6.57;;;3.70;;
2966;SDS011;1493;51.496;7.210;2023-09-08T12:25:26;4.20;;;3.80;;
2966;SDS011;1493;51.496;7.210;2023-09-08T12:27:53;4.40;;;4.00;;
2966;SDS011;1493;51.496;7.210;2023-09-08T12:30:21;4.37;;;3.97;;
2966;SDS011;1493;51.496;7.210;2023-09-08T12:32:56;4.30;;;3.90;;
2966;SDS011;1493;51.496;7.210;2023-09-08T12:35:24;4.20;;;3.40;;
2966;SDS011;1493;51.496;7.210;2023-09-08T12:37:53;6.23;;;4.20;;
2966;SDS011;1493;51.496;7.210;2023-09-08T12:40:22;4.80;;;4.20;;
2966;SDS011;1493;51.496;7.210;2023-09-08T12:42:49;4.87;;;3.57;;
2966;SDS011;1493;51.496;7.210;2023-09-08T12:45:17;8.63;;;3.60;;
2966;SDS011;1493;51.496;7.210;2023-09-08T12:47:44;4.20;;;3.70;;
2966;SDS011;1493;51.496;7.210;2023-09-08T12:50:12;5.00;;;3.53;;
2966;SDS011;1493;51.496;7.210;2023-09-08T12:52:39;3.80;;;3.40;;
2966;SDS011;1493;51.496;7.210;2023-09-08T12:55:06;3.97;;;3.27;;
2966;SDS011;1493;51.496;7.210;2023-09-08T12:57:33;5.10;;;3.97;;
2966;SDS011;1493;51.496;7.210;2023-09-08T13:00:00;5.63;;;4.07;;
2966;SDS011;1493;51.496;7.210;2023-09-08T13:02:28;5.23;;;3.43;;
2966;SDS011;1493;51.496;7.210;2023-09-08T13:04:54;3.60;;;3.30;;
2966;SDS011;1493;51.496;7.210;2023-09-08T13:07:23;3.70;;;2.90;;
2966;SDS011;1493;51.496;7.210;2023-09-08T13:09:51;4.70;;;3.53;;
2966;SDS011;1493;51.496;7.210;2023-09-08T13:12:17;3.97;;;3.43;;
2966;SDS011;1493;51.496;7.210;2023-09-08T13:14:44;4.27;;;3.80;;
2966;SDS011;1493;51.496;7.210;2023-09-08T13:17:11;5.10;;;4.07;;
2966;SDS011;1493;51.496;7.210;2023-09-08T13:19:40;4.27;;;3.87;;
2966;SDS011;1493;51.496;7.210;2023-09-08T13:22:07;6.90;;;3.70;;
2966;SDS011;1493;51.496;7.210;2023-09-08T13:24:35;3.90;;;3.47;;
2966;SDS011;1493;51.496;7.210;2023-09-08T13:27:02;4.10;;;3.70;;
2966;SDS011;1493;51.496;7.210;2023-09-08T13:29:29;5.70;;;4.37;;
2966;SDS011;1493;51.496;7.210;2023-09-08T13:31:56;4.17;;;3.77;;
2966;SDS011;1493;51.496;7.210;2023-09-08T13:34:23;5.20;;;3.67;;
2966;SDS011;1493;51.496;7.210;2023-09-08T13:36:50;6.33;;;4.30;;
2966;SDS011;1493;51.496;7.210;2023-09-08T13:39:17;3.77;;;3.37;;
2966;SDS011;1493;51.496;7.210;2023-09-08T13:41:46;4.00;;;3.60;;
2966;SDS011;1493;51.496;7.210;2023-09-08T13:44:15;4.43;;;3.53;;
2966;SDS011;1493;51.496;7.210;2023-09-08T13:46:42;4.40;;;4.00;;
2966;SDS011;1493;51.496;7.210;2023-09-08T13:49:09;4.30;;;3.80;;
2966;SDS011;1493;51.496;7.210;2023-09-08T13:51:36;4.40;;;3.40;;
2966;SDS011;1493;51.496;7.210;2023-09-08T13:54:03;4.50;;;4.10;;
2966;SDS011;1493;51.496;7.210;2023-09-08T13:56:30;4.17;;;3.77;;
2966;SDS011;1493;51.496;7.210;2023-09-08T13:58:58;5.00;;;4.10;;
2966;SDS011;1493;51.496;7.210;2023-09-08T14:01:25;5.00;;;3.63;;
2966;SDS011;1493;51.496;7.210;2023-09-08T14:03:54;4.80;;;4.30;;
2966;SDS011;1493;51.496;7.210;2023-09-08T14:06:21;4.60;;;4.20;;
2966;SDS011;1493;51.496;7.210;2023-09-08T14:08:48;4.50;;;3.70;;
2966;SDS011;1493;51.496;7.210;2023-09-08T14:11:15;4.23;;;3.83;;
2966;SDS011;1493;51.496;7.210;2023-09-08T14:13:42;4.23;;;3.73;;
2966;SDS011;1493;51.496;7.210;2023-09-08T14:16:10;4.30;;;3.90;;
2966;SDS011;1493;51.496;7.210;2023-09-08T14:18:37;5.17;;;4.10;;
2966;SDS011;1493;51.496;7.210;2023-09-08T14:21:04;5.30;;;4.30;;
2966;SDS011;1493;51.496;7.210;2023-09-08T14:23:31;6.23;;;5.07;;
2966;SDS011;1493;51.496;7.210;2023-09-08T14:25:59;4.77;;;4.30;;
2966;SDS011;1493;51.496;7.210;2023-09-08T14:28:26;7.20;;;4.00;;
2966;SDS011;1493;51.496;7.210;2023-09-08T14:30:53;5.10;;;3.67;;
2966;SDS011;1493;51.496;7.210;2023-09-08T14:33:21;4.23;;;3.83;;
2966;SDS011;1493;51.496;7.210;2023-09-08T14:35:48;4.90;;;4.50;;
2966;SDS011;1493;51.496;7.210;2023-09-08T14:38:16;4.33;;;3.80;;
2966;SDS011;1493;51.496;7.210;2023-09-08T14:40:43;4.80;;;4.27;;
2966;SDS011;1493;51.496;7.210;2023-09-08T14:43:11;4.40;;;4.00;;
2966;SDS011;1493;51.496;7.210;2023-09-08T14:45:38;4.73;;;4.33;;
2966;SDS011;1493;51.496;7.210;2023-09-08T14:48:05;5.50;;;4.33;;
2966;SDS011;1493;51.496;7.210;2023-09-08T14:50:33;4.90;;;4.20;;
2966;SDS011;1493;51.496;7.210;2023-09-08T14:53:00;4.93;;;4.37;;
2966;SDS011;1493;51.496;7.210;2023-09-08T14:55:27;5.07;;;4.23;;
2966;SDS011;1493;51.496;7.210;2023-09-08T14:57:54;4.77;;;4.27;;
2966;SDS011;1493;51.496;7.210;2023-09-08T15:00:21;4.70;;;3.50;;
2966;SDS011;1493;51.496;7.210;2023-09-08T15:02:48;4.87;;;3.97;;
2966;SDS011;1493;51.496;7.210;2023-09-08T15:05:15;7.53;;;4.57;;
2966;SDS011;1493;51.496;7.210;2023-09-08T15:07:43;6.60;;;4.30;;
2966;SDS011;1493;51.496;7.210;2023-09-08T15:10:10;5.07;;;4.50;;
2966;SDS011;1493;51.496;7.210;2023-09-08T15:12:37;5.40;;;4.63;;
2966;SDS011;1493;51.496;7.210;2023-09-08T15:15:04;4.77;;;4.30;;
2966;SDS011;1493;51.496;7.210;2023-09-08T15:17:31;5.23;;;4.30;;
2966;SDS011;1493;51.496;7.210;2023-09-08T15:19:58;5.50;;;4.80;;
2966;SDS011;1493;51.496;7.210;2023-09-08T15:22:25;14.63;;;5.10;;
2966;SDS011;1493;51.496;7.210;2023-09-08T15:24:53;5.20;;;4.47;;
2966;SDS011;1493;51.496;7.210;2023-09-08T15:27:20;6.80;;;5.70;;
2966;SDS011;1493;51.496;7.210;2023-09-08T15:29:47;4.83;;;4.17;;
2966;SDS011;1493;51.496;7.210;2023-09-08T15:32:14;7.33;;;6.60;;
2966;SDS011;1493;51.496;7.210;2023-09-08T15:34:41;6.07;;;5.43;;